Time;durP1;ratioP1;P1;durP2;ratioP2;P2;SDS_P1;SDS_P2;PMS_P1;PMS_P2;Temp;Humidity;BMP_temperature;BMP_pressure;BME280_temperature;BME280_humidity;BME280_pressure;Samples;Min_cycle;Max_cycle;Signal;HPM_P1;HPM_P2
2022/04/12 00:00:45;;;;;;;10.20;5.73;;;10.10;99.90;;;;;;5049502;28;21012;-87
2022/04/12 00:03:12;;;;;;;9.00;6.40;;;10.00;99.90;;;;;;5042575;28;20468;-87
2022/04/12 00:05:43;;;;;;;8.80;5.30;;;10.00;99.90;;;;;;5042596;28;20453;-87
2022/04/12 00:08:10;;;;;;;11.63;5.97;;;10.00;99.90;;;;;;5050328;28;20450;-86
2022/04/12 00:10:38;;;;;;;9.57;7.37;;;10.00;99.90;;;;;;5055569;28;20533;-86
2022/04/12 00:13:06;;;;;;;10.10;6.20;;;10.10;99.90;;;;;;5044281;28;20477;-87
2022/04/12 00:15:37;;;;;;;8.17;5.80;;;10.10;99.90;;;;;;5043675;28;20457;-87
2022/04/12 00:27:29;;;;;;;;;;;;;;;;;;;;;
2022/04/12 00:30:25;;;;;;;8.67;5.43;;;10.00;99.90;;;;;;5036600;28;21033;-85
2022/04/12 00:33:19;;;;;;;9.50;6.00;;;9.80;99.90;;;;;;5040804;28;20821;-85
2022/04/12 00:39:42;;;;;;;9.20;5.77;;;9.70;99.90;;;;;;5039469;28;20509;-85
2022/04/12 00:42:25;;;;;;;9.37;5.87;;;9.90;99.90;;;;;;4964580;28;20461;-84
2022/04/12 00:45:24;;;;;;;11.33;6.30;;;9.80;99.90;;;;;;4973264;28;20488;-84
2022/04/12 00:48:32;;;;;;;10.27;6.37;;;9.70;99.90;;;;;;5040849;28;20477;-83
2022/04/12 01:01:05;;;;;;;9.13;5.30;;;9.40;99.90;;;;;;5035982;28;20269;-85
2022/04/12 01:04:24;;;;;;;;;;;;;;;;;;;;;
2022/04/12 01:07:47;;;;;;;13.73;6.60;;;9.20;99.90;;;;;;5052517;28;20234;-84
2022/04/12 01:14:37;;;;;;;8.30;5.75;;;9.30;99.90;;;;;;4976924;28;20444;-85
2022/04/12 01:17:53;;;;;;;10.30;6.20;;;9.30;99.90;;;;;;4989655;28;20277;-85
2022/04/12 01:27:42;;;;;;;9.40;5.70;;;9.20;99.90;;;;;;5034093;28;20203;-84
2022/04/12 01:31:28;;;;;;;10.90;6.25;;;9.20;99.90;;;;;;5021824;28;20481;-83
2022/04/12 01:44:43;;;;;;;8.37;5.50;;;9.00;99.90;;;;;;5038526;28;20441;-84
2022/04/12 01:51:16;;;;;;;10.25;6.15;;;9.00;99.90;;;;;;4916434;29;20253;-83
2022/04/12 01:54:55;;;;;;;7.82;5.30;;;9.00;99.90;;;;;;4935493;29;20218;-84
2022/04/12 01:58:04;;;;;;;9.00;6.20;;;9.00;99.90;;;;;;5014879;28;20211;-84
2022/04/12 02:01:35;;;;;;;;;;;;;;;;;;;;;
2022/04/12 02:04:32;;;;;;;16.30;5.70;;;8.90;99.90;;;;;;4996577;28;20639;-84
2022/04/12 02:24:14;;;;;;;9.18;6.82;;;8.60;99.90;;;;;;4823036;28;20330;-82
2022/04/12 02:27:53;;;;;;;7.90;5.22;;;8.60;99.90;;;;;;5036760;28;20222;-84
2022/04/12 02:51:45;;;;;;;7.43;5.10;;;8.30;99.90;;;;;;4951350;28;20265;-84
2022/04/12 02:54:45;;;;;;;8.43;5.75;;;8.50;99.90;;;;;;4998615;28;20216;-84
2022/04/12 03:20:27;;;;;;;9.90;6.38;;;8.30;99.90;;;;;;5031478;28;20226;-84
2022/04/12 03:23:27;;;;;;;8.32;6.18;;;8.20;99.90;;;;;;5037798;28;20207;-82
2022/04/12 03:26:24;;;;;;;10.13;6.30;;;8.20;99.90;;;;;;5044247;28;20318;-84
2022/04/12 03:29:19;;;;;;;8.70;6.70;;;8.40;99.90;;;;;;5040497;28;20633;-85
2022/04/12 03:32:01;;;;;;;10.40;6.38;;;8.20;99.90;;;;;;5043113;28;20213;-84
2022/04/12 03:41:22;;;;;;;9.82;6.32;;;8.20;99.90;;;;;;5037301;28;20245;-82
2022/04/12 03:44:29;;;;;;;13.52;7.05;;;8.30;99.90;;;;;;5051616;28;20229;-84
2022/04/12 03:47:46;;;;;;;9.38;6.50;;;8.10;99.90;;;;;;5047333;28;20211;-84
2022/04/12 04:10:32;;;;;;;8.55;6.35;;;8.10;99.90;;;;;;5044520;28;20310;-84
2022/04/12 04:24:00;;;;;;;10.50;7.13;;;8.10;99.90;;;;;;4920512;29;20215;-85
2022/04/12 04:33:59;;;;;;;10.38;6.75;;;8.30;99.90;;;;;;4954460;29;20244;-84
2022/04/12 04:43:46;;;;;;;11.15;7.60;;;7.80;99.90;;;;;;5065775;28;20194;-84
2022/04/12 04:46:54;;;;;;;12.32;6.70;;;7.90;99.90;;;;;;5040493;28;20248;-83
2022/04/12 04:53:03;;;;;;;9.43;6.85;;;8.10;99.90;;;;;;5067771;28;20520;-85
2022/04/12 04:56:14;;;;;;;10.15;6.55;;;8.20;99.90;;;;;;5063272;28;20209;-84
2022/04/12 04:59:24;;;;;;;10.20;7.03;;;8.30;99.90;;;;;;5073595;28;20212;-83
2022/04/12 05:05:19;;;;;;;11.70;7.10;;;8.10;99.90;;;;;;5059416;28;20264;-82
2022/04/12 05:33:56;;;;;;;9.57;6.70;;;8.00;99.90;;;;;;5057763;28;20357;-83
2022/04/12 05:37:03;;;;;;;14.60;7.45;;;8.10;99.90;;;;;;5059340;28;20583;-83
2022/04/12 05:40:20;;;;;;;10.00;7.15;;;8.10;99.90;;;;;;5043131;28;20256;-85
2022/04/12 05:43:47;;;;;;;10.57;7.10;;;8.10;99.90;;;;;;5055340;28;20261;-84
2022/04/12 05:53:49;;;;;;;;;;;;;;;;;;;;;
2022/04/12 06:07:28;;;;;;;11.60;8.10;;;8.60;99.90;;;;;;4997262;28;20448;-85
2022/04/12 06:16:53;;;;;;;12.25;7.53;;;9.10;99.90;;;;;;5065652;28;20432;-85
2022/04/12 06:22:08;;;;;;;11.33;7.70;;;9.30;99.90;;;;;;5046044;28;20222;-87
2022/04/12 06:24:42;;;;;;;9.90;7.67;;;9.40;99.90;;;;;;5044986;28;20457;-87
2022/04/12 06:27:12;;;;;;;9.50;6.97;;;9.40;99.90;;;;;;5043840;28;20803;-87
2022/04/12 06:29:39;;;;;;;13.43;8.07;;;9.60;99.90;;;;;;5047359;28;20480;-86
2022/04/12 06:32:09;;;;;;;12.00;8.00;;;9.70;99.90;;;;;;5042774;28;20438;-88
2022/04/12 06:34:37;;;;;;;13.33;8.40;;;9.80;99.90;;;;;;5044008;28;20457;-87
2022/04/12 06:37:06;;;;;;;13.97;8.13;;;9.90;99.90;;;;;;5044031;28;20867;-86
2022/04/12 06:39:33;;;;;;;8.10;6.80;;;10.00;99.90;;;;;;5050106;28;20819;-87
2022/04/12 06:42:03;;;;;;;12.63;7.80;;;10.30;99.90;;;;;;5044779;28;20460;-88
2022/04/12 06:44:32;;;;;;;13.40;8.60;;;10.40;99.90;;;;;;5044547;28;20426;-87
2022/04/12 06:47:04;;;;;;;11.13;8.20;;;10.50;99.90;;;;;;5043256;28;20472;-87
2022/04/12 06:49:31;;;;;;;9.17;7.70;;;10.60;99.90;;;;;;5048252;28;20805;-86
2022/04/12 06:51:59;;;;;;;11.00;7.40;;;10.70;99.90;;;;;;5056287;28;20463;-86
2022/04/12 06:54:32;;;;;;;9.20;6.77;;;10.80;99.90;;;;;;5052912;28;20457;-87
2022/04/12 06:56:59;;;;;;;11.60;6.70;;;11.10;99.90;;;;;;5056198;28;20453;-86
2022/04/12 07:02:57;;;;;;;9.50;6.50;;;11.30;99.90;;;;;;5054556;28;20460;-88
2022/04/12 07:12:12;;;;;;;11.93;7.00;;;11.90;99.90;;;;;;5039909;28;20461;-86
2022/04/12 07:18:01;;;;;;;12.43;5.67;;;12.00;99.90;;;;;;5042618;28;20442;-87
2022/04/12 07:20:29;;;;;;;10.60;6.87;;;12.00;99.90;;;;;;5041508;28;20573;-88
2022/04/12 07:23:14;;;;;;;10.37;6.17;;;12.10;99.90;;;;;;5040688;28;20466;-88
2022/04/12 07:25:50;;;;;;;8.83;5.73;;;12.30;99.60;;;;;;5040694;28;20454;-88
2022/04/12 07:28:42;;;;;;;8.70;5.83;;;12.30;99.60;;;;;;5041718;28;20434;-89
2022/04/12 07:31:14;;;;;;;9.20;6.00;;;12.40;99.40;;;;;;5041192;28;20439;-88
2022/04/12 07:33:51;;;;;;;11.03;6.20;;;12.30;99.30;;;;;;5043541;28;20414;-87
2022/04/12 07:36:41;;;;;;;;;;;;;;;;;;;;;
2022/04/12 07:39:24;;;;;;;11.70;6.90;;;12.50;99.00;;;;;;5048796;28;20444;-88
2022/04/12 07:42:00;;;;;;;9.30;6.50;;;12.50;98.80;;;;;;5045295;28;20473;-87
2022/04/12 07:44:29;;;;;;;9.23;5.30;;;12.60;98.90;;;;;;5049483;28;20554;-86
2022/04/12 07:47:14;;;;;;;10.13;6.47;;;12.70;98.50;;;;;;5045729;28;20406;-87
2022/04/12 07:49:59;;;;;;;9.83;6.53;;;12.70;98.50;;;;;;5042459;28;20428;-85
2022/04/12 07:52:27;;;;;;;13.40;6.17;;;12.70;98.40;;;;;;5042752;28;20431;-87
2022/04/12 07:55:07;;;;;;;11.60;5.70;;;12.90;98.50;;;;;;5047309;28;20783;-86
2022/04/12 07:57:49;;;;;;;11.37;6.17;;;12.90;98.60;;;;;;5043457;28;20442;-85
2022/04/12 08:00:18;;;;;;;10.17;6.27;;;13.00;98.20;;;;;;5042029;28;20904;-86
2022/04/12 08:02:45;;;;;;;9.80;5.70;;;13.20;98.00;;;;;;5040727;28;20481;-84
2022/04/12 08:05:18;;;;;;;9.33;6.13;;;13.40;97.20;;;;;;5040267;28;20470;-86
2022/04/12 08:07:51;;;;;;;7.80;5.70;;;13.40;97.10;;;;;;5046813;28;20440;-87
2022/04/12 08:10:35;;;;;;;9.80;7.00;;;13.60;96.80;;;;;;5057773;28;20548;-88
2022/04/12 08:13:22;;;;;;;6.70;5.00;;;13.70;96.60;;;;;;5054673;28;20460;-86
2022/04/12 08:16:09;;;;;;;7.30;5.23;;;13.90;96.40;;;;;;5046688;28;20409;-86
2022/04/12 08:18:44;;;;;;;10.03;5.73;;;14.10;96.10;;;;;;5053950;28;20858;-88
2022/04/12 08:21:57;;;;;;;8.00;4.90;;;14.20;95.20;;;;;;5046586;28;20464;-87
2022/04/12 08:24:35;;;;;;;10.90;6.20;;;14.40;95.00;;;;;;4996146;28;20432;-87
2022/04/12 08:27:08;;;;;;;9.57;5.77;;;14.50;94.90;;;;;;5049444;28;20533;-88
2022/04/12 08:29:37;;;;;;;10.77;6.40;;;14.70;94.40;;;;;;5045954;28;20499;-87
2022/04/12 08:32:07;;;;;;;12.27;5.97;;;14.80;94.10;;;;;;5040817;28;20417;-86
2022/04/12 08:34:34;;;;;;;8.43;4.57;;;14.90;94.00;;;;;;5040778;28;20495;-86
2022/04/12 08:37:02;;;;;;;7.20;4.37;;;15.10;92.60;;;;;;5043318;28;20464;-84
2022/04/12 08:39:34;;;;;;;7.47;4.93;;;15.20;92.50;;;;;;5045169;28;20432;-87
2022/04/12 08:42:03;;;;;;;6.93;5.07;;;15.40;92.10;;;;;;5042660;28;20550;-86
2022/04/12 08:44:36;;;;;;;8.57;4.80;;;15.50;91.90;;;;;;5042131;28;20498;-86
2022/04/12 08:47:13;;;;;;;10.33;5.30;;;15.70;91.90;;;;;;5040350;28;20439;-85
2022/04/12 08:50:10;;;;;;;8.93;5.30;;;15.70;91.10;;;;;;5041106;28;20416;-87
2022/04/12 08:52:47;;;;;;;12.70;5.27;;;15.80;90.40;;;;;;5030882;28;20942;-87
2022/04/12 08:55:25;;;;;;;8.47;5.70;;;15.90;89.10;;;;;;5046147;28;20802;-88
2022/04/12 08:58:05;;;;;;;15.20;5.73;;;15.90;89.70;;;;;;5053400;28;20430;-88
2022/04/12 09:00:43;;;;;;;9.10;4.90;;;16.10;89.70;;;;;;5050630;28;20460;-87
2022/04/12 09:03:27;;;;;;;10.83;5.10;;;16.20;88.70;;;;;;5048598;28;20422;-87
2022/04/12 09:06:27;;;;;;;9.50;5.43;;;16.20;88.00;;;;;;5048001;28;20443;-86
2022/04/12 09:08:56;;;;;;;7.93;4.20;;;16.30;87.00;;;;;;5044319;28;20459;-88
2022/04/12 09:11:23;;;;;;;7.90;4.43;;;16.40;84.80;;;;;;5042354;28;20529;-87
2022/04/12 09:14:01;;;;;;;6.93;4.20;;;16.40;85.00;;;;;;5043319;28;20461;-88
2022/04/12 09:16:52;;;;;;;7.27;3.70;;;16.40;82.90;;;;;;5044489;28;20456;-85
2022/04/12 09:19:39;;;;;;;7.37;3.90;;;16.40;83.30;;;;;;5045290;28;20823;-85
2022/04/12 09:22:52;;;;;;;6.97;3.80;;;16.60;82.60;;;;;;5040276;28;20489;-85
2022/04/12 09:26:15;;;;;;;6.90;4.07;;;16.70;82.90;;;;;;5036521;28;20461;-87
2022/04/12 09:28:48;;;;;;;10.00;3.97;;;16.90;83.40;;;;;;5040323;28;20462;-87
2022/04/12 09:42:10;;;;;;;7.00;3.63;;;17.80;79.80;;;;;;4968673;29;20477;-86
2022/04/12 09:48:55;;;;;;;6.83;2.90;;;18.00;78.20;;;;;;5042685;28;20446;-87
2022/04/12 09:56:13;;;;;;;;;;;;;;;;;;;;;
2022/04/12 10:02:41;;;;;;;;;;;;;;;;;;;;;
2022/04/12 10:05:13;;;;;;;8.13;3.10;;;18.40;71.60;;;;;;5014245;28;20517;-87
2022/04/12 10:07:52;;;;;;;7.13;3.20;;;18.50;70.30;;;;;;5051928;28;20431;-86
2022/04/12 10:10:24;;;;;;;6.30;3.33;;;18.50;70.30;;;;;;5055540;28;20540;-88
2022/04/12 10:13:18;;;;;;;5.13;3.20;;;18.60;69.20;;;;;;5049695;28;20493;-87
2022/04/12 10:15:52;;;;;;;8.10;2.93;;;18.60;69.10;;;;;;5047741;28;20818;-88
2022/04/12 10:18:59;;;;;;;6.47;3.60;;;18.70;68.60;;;;;;5047238;28;20467;-87
2022/04/12 10:21:26;;;;;;;5.83;3.20;;;18.80;68.20;;;;;;5052590;28;20535;-87
2022/04/12 10:23:59;;;;;;;7.90;3.10;;;18.90;67.60;;;;;;5054014;28;20457;-87
2022/04/12 10:26:29;;;;;;;8.83;4.50;;;18.90;67.10;;;;;;5054800;28;20466;-87
2022/04/12 10:28:59;;;;;;;5.37;2.70;;;19.00;67.10;;;;;;5051089;28;20449;-88
2022/04/12 10:31:30;;;;;;;4.90;2.83;;;19.00;66.90;;;;;;5048034;28;20476;-87
2022/04/12 10:34:14;;;;;;;7.83;3.57;;;19.10;66.50;;;;;;5047004;28;20457;-87
2022/04/12 10:37:13;;;;;;;15.87;5.27;;;19.10;66.30;;;;;;5047820;28;20484;-88
2022/04/12 10:39:47;;;;;;;6.13;3.00;;;19.20;66.10;;;;;;4986460;28;20440;-87
2022/04/12 10:42:19;;;;;;;6.30;3.43;;;19.20;64.50;;;;;;5036732;28;20485;-87
2022/04/12 10:44:47;;;;;;;5.10;2.80;;;19.30;64.70;;;;;;5046622;28;20415;-87
2022/04/12 10:47:30;;;;;;;5.60;3.07;;;19.30;64.30;;;;;;5046912;28;20446;-86
2022/04/12 10:50:25;;;;;;;6.80;3.30;;;19.20;64.20;;;;;;5048866;28;20478;-86
2022/04/12 10:56:10;;;;;;;5.40;3.63;;;19.40;64.10;;;;;;5042805;28;20445;-88
2022/04/12 10:58:49;;;;;;;5.60;3.53;;;19.50;64.10;;;;;;5043133;28;20418;-87
2022/04/12 11:01:32;;;;;;;8.80;4.10;;;19.50;63.60;;;;;;5043610;28;20551;-87
2022/04/12 11:04:10;;;;;;;5.13;3.30;;;19.60;64.30;;;;;;5045420;28;20453;-86
2022/04/12 11:06:50;;;;;;;6.00;2.83;;;19.60;64.20;;;;;;5050096;28;20438;-88
2022/04/12 11:09:30;;;;;;;5.23;2.40;;;19.80;63.30;;;;;;5049785;28;20433;-88
2022/04/12 11:12:03;;;;;;;4.10;2.73;;;19.80;61.80;;;;;;5047240;28;20569;-86
2022/04/12 11:14:38;;;;;;;12.80;3.70;;;19.90;61.30;;;;;;5054286;28;20425;-88
2022/04/12 11:17:15;;;;;;;5.90;3.40;;;20.00;61.10;;;;;;5048846;28;20437;-88
2022/04/12 11:20:08;;;;;;;10.53;3.90;;;20.20;60.70;;;;;;5045142;28;20475;-88
2022/04/12 11:23:04;;;;;;;7.00;3.27;;;20.30;60.40;;;;;;5046283;28;20485;-87
2022/04/12 11:25:51;;;;;;;7.10;3.90;;;20.40;61.00;;;;;;5046060;28;20928;-87
2022/04/12 11:28:33;;;;;;;9.03;3.50;;;20.50;60.50;;;;;;5041456;28;20544;-87
2022/04/12 11:31:13;;;;;;;6.37;2.80;;;20.70;59.80;;;;;;5042550;28;20469;-87
2022/04/12 11:34:00;;;;;;;4.83;2.90;;;20.50;58.70;;;;;;5042918;28;20525;-86
2022/04/12 11:39:55;;;;;;;8.57;3.77;;;20.60;58.10;;;;;;5042092;28;20540;-87
2022/04/12 11:42:48;;;;;;;7.27;2.97;;;20.80;58.00;;;;;;5048129;28;20470;-88
2022/04/12 11:49:23;;;;;;;5.50;2.67;;;20.90;57.60;;;;;;5031511;28;20947;-88
2022/04/12 11:55:32;;;;;;;5.70;2.77;;;21.30;57.80;;;;;;5042832;28;20433;-88
2022/04/12 11:58:37;;;;;;;7.37;2.60;;;21.40;57.50;;;;;;5031755;28;20986;-86
2022/04/12 12:21:43;;;;;;;5.00;2.50;;;22.00;56.70;;;;;;1488712;26;20575;-87
2022/04/12 12:27:37;;;;;;;7.73;2.57;;;22.10;56.90;;;;;;5017496;22;20526;-85
2022/04/12 12:30:07;;;;;;;5.10;2.80;;;22.00;57.30;;;;;;5026268;28;20442;-84
2022/04/12 12:32:35;;;;;;;5.67;2.90;;;21.90;57.50;;;;;;5023168;28;20794;-84
2022/04/12 12:44:20;;;;;;;5.40;2.47;;;22.40;56.80;;;;;;5021217;28;20780;-84
2022/04/12 12:47:39;;;;;;;6.03;2.40;;;22.50;56.60;;;;;;5022018;28;20455;-85
2022/04/12 12:57:42;;;;;;;7.07;3.60;;;22.80;56.20;;;;;;4950539;28;20470;-85
2022/04/12 13:05:00;;;;;;;4.10;2.30;;;22.50;56.70;;;;;;4892165;29;20449;-85
2022/04/12 13:08:10;;;;;;;4.60;2.50;;;22.60;56.40;;;;;;4886006;29;20512;-84
2022/04/12 13:20:55;;;;;;;4.30;2.43;;;22.30;56.30;;;;;;4962317;29;20437;-84
2022/04/12 13:24:08;;;;;;;6.33;2.37;;;22.30;56.20;;;;;;4961199;29;20866;-84
2022/04/12 13:27:05;;;;;;;6.13;2.20;;;22.30;55.60;;;;;;5018882;28;20494;-85
2022/04/12 13:43:38;;;;;;;6.43;2.10;;;22.70;54.30;;;;;;4900162;29;20493;-84
2022/04/12 13:46:17;;;;;;;3.67;1.80;;;22.60;53.90;;;;;;5019650;28;20442;-85
2022/04/12 13:48:50;;;;;;;3.83;1.73;;;22.60;54.00;;;;;;5040984;28;20456;-85
2022/04/12 13:58:48;;;;;;;5.20;1.60;;;22.60;53.50;;;;;;4939604;29;20505;-84
2022/04/12 14:01:34;;;;;;;7.37;2.60;;;22.60;53.60;;;;;;4944720;29;20954;-87
2022/04/12 14:04:11;;;;;;;3.83;1.77;;;22.70;53.50;;;;;;4961011;29;20541;-86
2022/04/12 14:24:14;;;;;;;4.50;1.73;;;22.70;52.30;;;;;;4998366;28;20480;-84
2022/04/12 14:34:16;;;;;;;3.00;1.30;;;22.80;52.40;;;;;;4903222;29;20456;-85
2022/04/12 14:50:35;;;;;;;3.87;1.90;;;22.70;52.20;;;;;;4963691;29;20425;-85
2022/04/12 15:17:34;;;;;;;5.43;2.50;;;22.60;51.90;;;;;;4906107;29;20480;-86
2022/04/12 15:27:31;;;;;;;5.07;2.03;;;23.00;51.60;;;;;;4981402;28;20483;-86
2022/04/12 16:08:25;;;;;;;5.47;2.27;;;22.20;53.40;;;;;;4910098;29;20468;-85
2022/04/12 16:11:47;;;;;;;;;;;;;;;;;;;;;
2022/04/12 16:33:05;;;;;;;5.10;2.87;;;22.00;55.60;;;;;;4910903;29;20495;-86
2022/04/12 16:42:27;;;;;;;6.13;3.50;;;22.00;57.60;;;;;;5036921;28;20214;-86
2022/04/12 16:51:44;;;;;;;7.77;3.80;;;21.70;58.70;;;;;;4977609;28;20450;-88
2022/04/12 16:54:47;;;;;;;9.10;3.97;;;21.50;59.10;;;;;;5054080;28;20437;-88
2022/04/12 16:57:19;;;;;;;7.73;3.87;;;21.40;59.60;;;;;;5062855;28;20838;-86
2022/04/12 17:06:30;;;;;;;9.30;5.20;;;21.10;61.90;;;;;;5048537;28;20524;-87
2022/04/12 17:09:42;;;;;;;9.20;6.27;;;21.10;62.40;;;;;;5075007;28;20428;-89
2022/04/12 17:22:23;;;;;;;8.63;4.60;;;21.20;64.00;;;;;;4921854;29;20458;-86
2022/04/12 17:28:29;;;;;;;8.27;4.70;;;21.00;65.00;;;;;;4881422;29;20470;-84
2022/04/12 17:31:23;;;;;;;8.13;5.03;;;20.90;65.80;;;;;;4931347;29;20451;-85
2022/04/12 17:34:33;;;;;;;8.30;4.53;;;20.70;66.70;;;;;;4990669;28;20448;-87
2022/04/12 17:40:21;;;;;;;8.00;5.30;;;20.60;67.80;;;;;;5028746;28;20516;-84
2022/04/12 18:59:03;;;;;;;8.60;6.10;;;19.30;79.20;;;;;;4851124;22;20440;-86
2022/04/12 19:01:36;;;;;;;11.80;5.83;;;19.20;79.50;;;;;;5054892;28;20452;-88
2022/04/12 19:04:41;;;;;;;10.63;7.17;;;19.30;79.80;;;;;;5065109;28;20534;-88
2022/04/12 19:07:22;;;;;;;12.00;7.00;;;19.30;79.80;;;;;;5071987;28;20456;-88
2022/04/12 19:10:29;;;;;;;;;;;;;;;;;;;;;
2022/04/12 19:13:38;;;;;;;12.70;7.70;;;19.10;81.30;;;;;;5065566;28;20421;-88
2022/04/12 19:20:08;;;;;;;9.20;6.80;;;18.90;82.40;;;;;;5033828;28;20448;-88
2022/04/12 19:22:51;;;;;;;12.60;6.90;;;19.00;83.10;;;;;;5055642;28;20843;-87
2022/04/12 19:26:16;;;;;;;10.23;6.30;;;19.00;84.10;;;;;;5063184;28;20530;-87
2022/04/12 19:32:46;;;;;;;9.93;6.03;;;19.00;85.40;;;;;;4881791;29;20441;-88
2022/04/12 19:35:48;;;;;;;8.40;5.30;;;18.90;86.60;;;;;;4961656;28;20475;-89
2022/04/12 19:38:58;;;;;;;11.30;6.47;;;18.80;87.80;;;;;;5061476;28;20453;-86
2022/04/12 19:41:34;;;;;;;9.33;5.90;;;18.70;88.20;;;;;;5062285;28;20463;-88
2022/04/12 19:44:25;;;;;;;9.60;5.37;;;18.70;88.70;;;;;;5063073;28;20490;-88
2022/04/12 19:46:57;;;;;;;8.40;5.43;;;18.70;89.10;;;;;;5063941;28;20415;-87
2022/04/12 19:49:55;;;;;;;13.07;6.63;;;18.60;90.00;;;;;;5063684;28;20479;-88
2022/04/12 19:56:25;;;;;;;9.30;5.33;;;18.30;90.90;;;;;;4925416;29;20449;-89
2022/04/12 19:59:22;;;;;;;9.37;6.20;;;18.20;91.50;;;;;;4967641;28;20487;-89
2022/04/12 20:05:12;;;;;;;8.77;5.73;;;18.10;92.30;;;;;;5007632;28;20869;-90
2022/04/12 20:10:58;;;;;;;12.17;6.27;;;17.90;92.80;;;;;;5046087;28;20436;-88
2022/04/12 20:13:29;;;;;;;9.90;5.90;;;17.90;93.20;;;;;;5052538;28;20427;-89
2022/04/12 20:16:00;;;;;;;9.00;5.30;;;17.70;93.60;;;;;;5044938;28;20416;-87
2022/04/12 20:21:37;;;;;;;10.90;6.00;;;17.70;94.40;;;;;;5035956;28;20441;-87
2022/04/12 20:26:54;;;;;;;8.20;5.20;;;17.30;95.50;;;;;;5051365;28;20521;-88
2022/04/12 20:29:31;;;;;;;11.47;5.70;;;17.10;96.40;;;;;;5041892;28;20475;-88
2022/04/12 20:32:12;;;;;;;7.03;4.80;;;17.10;97.00;;;;;;5040657;28;20436;-88
2022/04/12 20:34:51;;;;;;;11.37;5.07;;;17.10;97.20;;;;;;5041075;28;20430;-86
2022/04/12 20:40:03;;;;;;;8.60;5.27;;;17.10;97.70;;;;;;5038993;28;20481;-87
2022/04/12 20:42:33;;;;;;;7.70;5.47;;;17.00;97.70;;;;;;5040776;28;20443;-90
2022/04/12 20:45:06;;;;;;;7.13;5.33;;;16.90;98.20;;;;;;5047362;28;20523;-87
2022/04/12 20:47:47;;;;;;;8.30;6.13;;;16.80;98.90;;;;;;5055489;28;20405;-88
2022/04/12 20:50:28;;;;;;;9.83;5.70;;;16.70;99.30;;;;;;5048959;28;20498;-88
2022/04/12 20:53:05;;;;;;;9.53;5.33;;;16.70;99.70;;;;;;5053700;28;20447;-89
2022/04/12 20:56:03;;;;;;;8.50;5.60;;;16.80;99.90;;;;;;5052513;28;20752;-89
2022/04/12 20:58:34;;;;;;;6.97;5.20;;;16.70;99.90;;;;;;5043850;28;20446;-87
2022/04/12 21:01:03;;;;;;;9.83;4.80;;;16.60;99.90;;;;;;5082963;28;20430;-89
2022/04/12 21:03:35;;;;;;;8.70;4.40;;;16.70;99.90;;;;;;5083160;28;20431;-89
2022/04/12 21:06:12;;;;;;;8.33;5.23;;;16.60;99.90;;;;;;5081458;28;20440;-89
2022/04/12 21:08:41;;;;;;;6.90;4.90;;;16.50;99.90;;;;;;5079968;28;20479;-87
2022/04/12 21:11:18;;;;;;;8.47;5.40;;;16.50;99.90;;;;;;5081763;28;21024;-87
2022/04/12 21:13:46;;;;;;;8.30;4.80;;;16.50;99.90;;;;;;5078955;28;20447;-87
2022/04/12 21:16:21;;;;;;;10.07;6.00;;;16.40;99.90;;;;;;5079353;28;20522;-87
2022/04/12 21:18:49;;;;;;;6.30;4.60;;;16.40;99.90;;;;;;5084960;28;20449;-88
2022/04/12 21:21:17;;;;;;;15.07;6.50;;;16.30;99.90;;;;;;5078342;28;20430;-87
2022/04/12 21:23:45;;;;;;;9.37;6.13;;;16.20;99.90;;;;;;5078118;28;20854;-88
2022/04/12 21:26:12;;;;;;;10.70;5.80;;;16.20;99.90;;;;;;5077127;28;20963;-88
2022/04/12 21:28:42;;;;;;;9.23;4.70;;;16.10;99.90;;;;;;5077872;28;20822;-89
2022/04/12 21:31:09;;;;;;;10.37;5.87;;;16.10;99.90;;;;;;5084498;28;20826;-88
2022/04/12 21:33:40;;;;;;;6.07;4.23;;;16.20;99.90;;;;;;5089528;28;20440;-87
2022/04/12 21:36:09;;;;;;;9.40;5.80;;;16.40;99.90;;;;;;5086800;28;20869;-88
2022/04/12 21:38:36;;;;;;;7.20;5.33;;;16.20;99.90;;;;;;5086351;28;20449;-88
2022/04/12 21:41:11;;;;;;;9.53;4.93;;;16.20;99.90;;;;;;5094814;28;20462;-87
2022/04/12 21:43:39;;;;;;;8.87;5.60;;;16.10;99.90;;;;;;5102447;28;20436;-87
2022/04/12 21:46:09;;;;;;;8.67;5.80;;;16.00;99.90;;;;;;5100004;28;20450;-88
2022/04/12 21:48:40;;;;;;;11.30;5.00;;;16.00;99.90;;;;;;5088293;28;20485;-88
2022/04/12 21:51:11;;;;;;;7.53;4.80;;;16.00;99.90;;;;;;5088395;28;20451;-88
2022/04/12 21:53:39;;;;;;;11.30;6.53;;;15.90;99.90;;;;;;5086476;28;20430;-88
2022/04/12 21:56:07;;;;;;;6.53;4.73;;;15.90;99.90;;;;;;5085871;28;20452;-87
2022/04/12 21:58:35;;;;;;;10.53;6.20;;;15.80;99.90;;;;;;5086293;28;20896;-89
2022/04/12 22:01:10;;;;;;;8.93;5.70;;;15.80;99.90;;;;;;5087292;28;20455;-88
2022/04/12 22:03:52;;;;;;;9.80;6.10;;;15.70;99.90;;;;;;5100103;28;20383;-90
2022/04/12 22:06:20;;;;;;;7.83;5.07;;;15.60;99.90;;;;;;5101685;28;20421;-88
2022/04/12 22:08:49;;;;;;;10.43;5.17;;;15.70;99.90;;;;;;5097347;28;20450;-87
2022/04/12 22:11:23;;;;;;;8.27;5.10;;;15.70;99.90;;;;;;5090192;28;20461;-88
2022/04/12 22:14:02;;;;;;;8.60;5.20;;;15.60;99.90;;;;;;5098042;28;20478;-89
2022/04/12 22:16:30;;;;;;;7.80;4.93;;;15.60;99.90;;;;;;5100107;28;20386;-88
2022/04/12 22:19:03;;;;;;;8.13;4.50;;;15.50;99.90;;;;;;5097768;28;20446;-88
2022/04/12 22:21:32;;;;;;;7.73;4.80;;;15.50;99.90;;;;;;5088530;28;20443;-90
2022/04/12 22:24:04;;;;;;;8.67;4.20;;;15.50;99.90;;;;;;5087942;28;20487;-89
2022/04/12 22:26:42;;;;;;;7.10;4.50;;;15.40;99.90;;;;;;5087723;28;20458;-90
2022/04/12 22:29:21;;;;;;;8.30;5.03;;;15.40;99.90;;;;;;5091465;28;20440;-90
2022/04/12 22:32:22;;;;;;;10.93;4.90;;;15.40;99.90;;;;;;5092939;28;20394;-90
2022/04/12 22:35:35;;;;;;;7.50;5.43;;;15.30;99.90;;;;;;5088002;28;20516;-90
2022/04/12 22:38:16;;;;;;;10.23;5.30;;;15.20;99.90;;;;;;5089287;28;20443;-89
2022/04/12 22:40:55;;;;;;;7.40;4.60;;;15.20;99.90;;;;;;5086965;28;20402;-88
2022/04/12 22:46:10;;;;;;;8.40;4.90;;;15.20;99.90;;;;;;5080195;28;20517;-88
2022/04/12 22:48:45;;;;;;;9.40;5.10;;;15.30;99.90;;;;;;5082103;28;20474;-88
2022/04/12 22:51:19;;;;;;;7.07;4.77;;;15.30;99.90;;;;;;5081335;28;20400;-89
2022/04/12 22:53:48;;;;;;;12.60;5.20;;;15.30;99.90;;;;;;5081823;28;20800;-88
2022/04/12 22:56:24;;;;;;;7.77;5.13;;;15.30;99.90;;;;;;5082075;28;20410;-88
2022/04/12 22:58:56;;;;;;;9.17;5.17;;;15.30;99.90;;;;;;5093093;28;20481;-87
2022/04/12 23:01:29;;;;;;;6.27;4.50;;;15.30;99.90;;;;;;5088932;28;20517;-87
2022/04/12 23:03:58;;;;;;;6.87;4.63;;;15.20;99.90;;;;;;5089599;28;20418;-88
2022/04/12 23:06:30;;;;;;;8.27;5.43;;;15.20;99.90;;;;;;5086117;28;20500;-89
2022/04/12 23:09:12;;;;;;;7.33;5.13;;;15.10;99.90;;;;;;5083595;28;20446;-88
2022/04/12 23:11:44;;;;;;;8.00;4.57;;;15.00;99.90;;;;;;5085527;28;20428;-86
2022/04/12 23:14:11;;;;;;;8.70;5.53;;;14.90;99.90;;;;;;5091575;28;20399;-88
2022/04/12 23:16:44;;;;;;;8.13;4.63;;;14.90;99.90;;;;;;5082509;28;20451;-88
2022/04/12 23:19:11;;;;;;;8.43;5.90;;;14.90;99.90;;;;;;5080823;28;21050;-88
2022/04/12 23:21:50;;;;;;;8.40;5.00;;;15.00;99.90;;;;;;5082596;28;20459;-87
2022/04/12 23:24:20;;;;;;;8.50;4.60;;;15.10;99.90;;;;;;5079408;28;21009;-88
2022/04/12 23:26:49;;;;;;;6.83;4.47;;;15.10;99.90;;;;;;5079167;28;20501;-86
2022/04/12 23:29:18;;;;;;;6.67;4.80;;;15.20;99.90;;;;;;5080297;28;20563;-88
2022/04/12 23:31:49;;;;;;;9.30;4.53;;;15.10;99.90;;;;;;5081674;28;20486;-87
2022/04/12 23:34:16;;;;;;;10.17;5.10;;;15.10;99.90;;;;;;5080321;28;20417;-87
2022/04/12 23:36:47;;;;;;;7.33;4.90;;;15.10;99.90;;;;;;5081250;28;21002;-90
2022/04/12 23:39:34;;;;;;;8.63;5.07;;;15.00;99.90;;;;;;5079761;28;20842;-87
2022/04/12 23:42:13;;;;;;;8.83;5.33;;;14.90;99.90;;;;;;5079004;28;20932;-87
2022/04/12 23:44:46;;;;;;;9.67;4.40;;;14.70;99.90;;;;;;5079600;28;20446;-87
2022/04/12 23:47:16;;;;;;;7.57;4.93;;;14.60;99.90;;;;;;5079859;28;20901;-88
2022/04/12 23:49:53;;;;;;;7.27;4.47;;;14.60;99.90;;;;;;5079458;28;20494;-88
2022/04/12 23:52:31;;;;;;;5.73;4.03;;;14.60;99.90;;;;;;5080805;28;20447;-87
2022/04/12 23:55:04;;;;;;;6.73;3.83;;;14.60;99.90;;;;;;5078226;28;20422;-87
2022/04/12 23:57:39;;;;;;;8.07;4.37;;;14.60;99.90;;;;;;5083906;28;20867;-89
